sensor_id;sensor_type;location;lat;lon;timestamp;P1;durP1;ratioP1;P2;durP2;ratioP2
25982;SDS011;13773;48.868;10.730;2023-04-25T00:01:04;4.10;;;2.80;;
25982;SDS011;13773;48.868;10.730;2023-04-25T00:03:30;3.53;;;3.07;;
25982;SDS011;13773;48.868;10.730;2023-04-25T00:05:57;3.50;;;2.87;;
25982;SDS011;13773;48.868;10.730;2023-04-25T00:08:27;3.30;;;2.90;;
25982;SDS011;13773;48.868;10.730;2023-04-25T00:10:53;3.20;;;2.90;;
25982;SDS011;13773;48.868;10.730;2023-04-25T00:13:19;5.50;;;2.67;;
25982;SDS011;13773;48.868;10.730;2023-04-25T00:15:45;3.30;;;3.00;;
25982;SDS011;13773;48.868;10.730;2023-04-25T00:18:11;4.03;;;3.20;;
25982;SDS011;13773;48.868;10.730;2023-04-25T00:20:37;4.70;;;3.20;;
25982;SDS011;13773;48.868;10.730;2023-04-25T00:23:02;4.10;;;3.17;;
25982;SDS011;13773;48.868;10.730;2023-04-25T00:25:28;3.63;;;3.10;;
25982;SDS011;13773;48.868;10.730;2023-04-25T00:27:54;3.50;;;3.20;;
25982;SDS011;13773;48.868;10.730;2023-04-25T00:30:21;4.63;;;3.33;;
25982;SDS011;13773;48.868;10.730;2023-04-25T00:32:47;3.97;;;3.00;;
25982;SDS011;13773;48.868;10.730;2023-04-25T00:35:13;3.40;;;3.10;;
25982;SDS011;13773;48.868;10.730;2023-04-25T00:37:39;3.97;;;3.57;;
25982;SDS011;13773;48.868;10.730;2023-04-25T00:40:06;3.60;;;3.30;;
25982;SDS011;13773;48.868;10.730;2023-04-25T00:42:32;3.97;;;3.33;;
25982;SDS011;13773;48.868;10.730;2023-04-25T00:44:59;3.50;;;3.20;;
25982;SDS011;13773;48.868;10.730;2023-04-25T00:47:26;5.77;;;2.83;;
25982;SDS011;13773;48.868;10.730;2023-04-25T00:49:53;3.23;;;2.90;;
25982;SDS011;13773;48.868;10.730;2023-04-25T00:52:19;3.57;;;3.27;;
25982;SDS011;13773;48.868;10.730;2023-04-25T00:54:45;3.87;;;3.10;;
25982;SDS011;13773;48.868;10.730;2023-04-25T00:57:11;4.30;;;3.10;;
25982;SDS011;13773;48.868;10.730;2023-04-25T00:59:37;4.10;;;2.90;;
25982;SDS011;13773;48.868;10.730;2023-04-25T01:02:04;3.30;;;2.87;;
25982;SDS011;13773;48.868;10.730;2023-04-25T01:04:30;3.70;;;3.10;;
25982;SDS011;13773;48.868;10.730;2023-04-25T01:06:56;2.93;;;2.70;;
25982;SDS011;13773;48.868;10.730;2023-04-25T01:09:22;3.23;;;2.93;;
25982;SDS011;13773;48.868;10.730;2023-04-25T01:11:49;3.40;;;3.00;;
25982;SDS011;13773;48.868;10.730;2023-04-25T01:14:15;3.27;;;2.87;;
25982;SDS011;13773;48.868;10.730;2023-04-25T01:16:41;4.03;;;2.73;;
25982;SDS011;13773;48.868;10.730;2023-04-25T01:19:08;3.20;;;2.90;;
25982;SDS011;13773;48.868;10.730;2023-04-25T01:21:38;3.20;;;2.90;;
25982;SDS011;13773;48.868;10.730;2023-04-25T01:24:05;4.70;;;3.00;;
25982;SDS011;13773;48.868;10.730;2023-04-25T01:26:31;4.67;;;3.00;;
25982;SDS011;13773;48.868;10.730;2023-04-25T01:28:58;5.13;;;3.37;;
25982;SDS011;13773;48.868;10.730;2023-04-25T01:31:25;5.60;;;3.00;;
25982;SDS011;13773;48.868;10.730;2023-04-25T01:33:52;2.90;;;2.60;;
25982;SDS011;13773;48.868;10.730;2023-04-25T01:36:18;3.30;;;3.00;;
25982;SDS011;13773;48.868;10.730;2023-04-25T01:38:44;4.90;;;2.50;;
25982;SDS011;13773;48.868;10.730;2023-04-25T01:41:12;3.17;;;2.70;;
25982;SDS011;13773;48.868;10.730;2023-04-25T01:43:39;3.10;;;2.90;;
25982;SDS011;13773;48.868;10.730;2023-04-25T01:46:05;5.60;;;2.80;;
25982;SDS011;13773;48.868;10.730;2023-04-25T01:48:31;3.70;;;2.83;;
25982;SDS011;13773;48.868;10.730;2023-04-25T01:50:57;3.50;;;2.97;;
25982;SDS011;13773;48.868;10.730;2023-04-25T01:53:22;3.30;;;2.77;;
25982;SDS011;13773;48.868;10.730;2023-04-25T01:55:49;4.17;;;2.67;;
25982;SDS011;13773;48.868;10.730;2023-04-25T01:58:15;4.30;;;3.20;;
25982;SDS011;13773;48.868;10.730;2023-04-25T02:00:40;3.97;;;3.20;;
25982;SDS011;13773;48.868;10.730;2023-04-25T02:03:06;4.27;;;3.17;;
25982;SDS011;13773;48.868;10.730;2023-04-25T02:05:37;3.83;;;3.30;;
25982;SDS011;13773;48.868;10.730;2023-04-25T02:08:04;4.50;;;3.20;;
25982;SDS011;13773;48.868;10.730;2023-04-25T02:10:31;4.27;;;3.27;;
25982;SDS011;13773;48.868;10.730;2023-04-25T02:12:57;3.77;;;3.40;;
25982;SDS011;13773;48.868;10.730;2023-04-25T02:15:23;6.10;;;3.60;;
25982;SDS011;13773;48.868;10.730;2023-04-25T02:17:49;4.47;;;3.33;;
25982;SDS011;13773;48.868;10.730;2023-04-25T02:20:14;4.77;;;3.30;;
25982;SDS011;13773;48.868;10.730;2023-04-25T02:22:44;4.07;;;3.40;;
25982;SDS011;13773;48.868;10.730;2023-04-25T02:25:10;3.47;;;3.17;;
25982;SDS011;13773;48.868;10.730;2023-04-25T02:27:36;3.63;;;3.20;;
25982;SDS011;13773;48.868;10.730;2023-04-25T02:30:02;4.33;;;3.50;;
25982;SDS011;13773;48.868;10.730;2023-04-25T02:32:29;4.73;;;3.70;;
25982;SDS011;13773;48.868;10.730;2023-04-25T02:34:55;3.53;;;3.17;;
25982;SDS011;13773;48.868;10.730;2023-04-25T02:37:23;4.27;;;3.37;;
25982;SDS011;13773;48.868;10.730;2023-04-25T02:39:49;5.33;;;3.53;;
25982;SDS011;13773;48.868;10.730;2023-04-25T02:42:15;3.87;;;3.23;;
25982;SDS011;13773;48.868;10.730;2023-04-25T02:44:41;5.70;;;3.60;;
25982;SDS011;13773;48.868;10.730;2023-04-25T02:47:06;4.73;;;3.67;;
25982;SDS011;13773;48.868;10.730;2023-04-25T02:49:32;4.87;;;3.33;;
25982;SDS011;13773;48.868;10.730;2023-04-25T02:51:58;4.13;;;3.50;;
25982;SDS011;13773;48.868;10.730;2023-04-25T02:54:24;4.17;;;3.77;;
25982;SDS011;13773;48.868;10.730;2023-04-25T02:56:49;5.33;;;3.60;;
25982;SDS011;13773;48.868;10.730;2023-04-25T02:59:15;4.50;;;3.20;;
25982;SDS011;13773;48.868;10.730;2023-04-25T03:01:40;3.33;;;3.00;;
25982;SDS011;13773;48.868;10.730;2023-04-25T03:04:06;4.90;;;3.20;;
25982;SDS011;13773;48.868;10.730;2023-04-25T03:06:32;3.80;;;3.50;;
25982;SDS011;13773;48.868;10.730;2023-04-25T03:08:57;5.67;;;3.80;;
25982;SDS011;13773;48.868;10.730;2023-04-25T03:11:25;4.00;;;3.30;;
25982;SDS011;13773;48.868;10.730;2023-04-25T03:13:50;5.63;;;3.97;;
25982;SDS011;13773;48.868;10.730;2023-04-25T03:16:16;4.37;;;3.60;;
25982;SDS011;13773;48.868;10.730;2023-04-25T03:18:42;6.27;;;4.20;;
25982;SDS011;13773;48.868;10.730;2023-04-25T03:21:07;4.50;;;3.87;;
25982;SDS011;13773;48.868;10.730;2023-04-25T03:23:33;4.53;;;3.30;;
25982;SDS011;13773;48.868;10.730;2023-04-25T03:25:59;3.37;;;3.07;;
25982;SDS011;13773;48.868;10.730;2023-04-25T03:28:25;6.77;;;4.47;;
25982;SDS011;13773;48.868;10.730;2023-04-25T03:30:50;5.10;;;4.27;;
25982;SDS011;13773;48.868;10.730;2023-04-25T03:33:16;6.07;;;3.90;;
25982;SDS011;13773;48.868;10.730;2023-04-25T03:35:41;5.23;;;3.70;;
25982;SDS011;13773;48.868;10.730;2023-04-25T03:38:07;4.00;;;3.60;;
25982;SDS011;13773;48.868;10.730;2023-04-25T03:40:33;4.97;;;3.97;;
25982;SDS011;13773;48.868;10.730;2023-04-25T03:42:59;4.73;;;3.80;;
25982;SDS011;13773;48.868;10.730;2023-04-25T03:45:25;4.53;;;4.03;;
25982;SDS011;13773;48.868;10.730;2023-04-25T03:47:51;4.50;;;4.10;;
25982;SDS011;13773;48.868;10.730;2023-04-25T03:50:16;4.13;;;3.73;;
25982;SDS011;13773;48.868;10.730;2023-04-25T03:52:42;3.67;;;3.20;;
25982;SDS011;13773;48.868;10.730;2023-04-25T03:55:08;4.03;;;3.30;;
25982;SDS011;13773;48.868;10.730;2023-04-25T03:57:34;3.50;;;3.20;;
25982;SDS011;13773;48.868;10.730;2023-04-25T04:00:00;4.23;;;3.77;;
25982;SDS011;13773;48.868;10.730;2023-04-25T04:02:26;4.17;;;3.33;;
25982;SDS011;13773;48.868;10.730;2023-04-25T04:04:52;4.57;;;3.20;;
25982;SDS011;13773;48.868;10.730;2023-04-25T04:07:18;3.83;;;3.40;;
25982;SDS011;13773;48.868;10.730;2023-04-25T04:09:44;6.03;;;4.20;;
25982;SDS011;13773;48.868;10.730;2023-04-25T04:12:09;5.03;;;3.77;;
25982;SDS011;13773;48.868;10.730;2023-04-25T04:14:35;5.97;;;3.47;;
25982;SDS011;13773;48.868;10.730;2023-04-25T04:17:01;4.17;;;3.57;;
25982;SDS011;13773;48.868;10.730;2023-04-25T04:19:26;4.67;;;3.60;;
25982;SDS011;13773;48.868;10.730;2023-04-25T04:21:52;4.83;;;3.87;;
25982;SDS011;13773;48.868;10.730;2023-04-25T04:24:18;4.77;;;3.90;;
25982;SDS011;13773;48.868;10.730;2023-04-25T04:26:43;4.40;;;3.90;;
25982;SDS011;13773;48.868;10.730;2023-04-25T04:29:10;4.73;;;3.60;;
25982;SDS011;13773;48.868;10.730;2023-04-25T04:31:36;3.97;;;3.57;;
25982;SDS011;13773;48.868;10.730;2023-04-25T04:34:02;3.47;;;3.03;;
25982;SDS011;13773;48.868;10.730;2023-04-25T04:36:28;6.07;;;3.50;;
25982;SDS011;13773;48.868;10.730;2023-04-25T04:38:54;5.10;;;3.70;;
25982;SDS011;13773;48.868;10.730;2023-04-25T04:41:21;4.17;;;3.43;;
25982;SDS011;13773;48.868;10.730;2023-04-25T04:43:47;4.23;;;3.83;;
25982;SDS011;13773;48.868;10.730;2023-04-25T04:46:13;4.90;;;3.93;;
25982;SDS011;13773;48.868;10.730;2023-04-25T04:48:39;4.73;;;4.03;;
25982;SDS011;13773;48.868;10.730;2023-04-25T04:51:05;5.67;;;3.90;;
25982;SDS011;13773;48.868;10.730;2023-04-25T04:53:31;7.00;;;4.00;;
25982;SDS011;13773;48.868;10.730;2023-04-25T04:55:57;6.23;;;3.80;;
25982;SDS011;13773;48.868;10.730;2023-04-25T04:58:23;7.63;;;4.50;;
25982;SDS011;13773;48.868;10.730;2023-04-25T05:00:49;5.57;;;4.80;;
25982;SDS011;13773;48.868;10.730;2023-04-25T05:03:15;4.73;;;4.17;;
25982;SDS011;13773;48.868;10.730;2023-04-25T05:05:41;4.80;;;4.30;;
25982;SDS011;13773;48.868;10.730;2023-04-25T05:08:07;6.00;;;4.37;;
25982;SDS011;13773;48.868;10.730;2023-04-25T05:10:32;5.60;;;4.60;;
25982;SDS011;13773;48.868;10.730;2023-04-25T05:12:58;5.80;;;4.57;;
25982;SDS011;13773;48.868;10.730;2023-04-25T05:15:24;5.23;;;4.30;;
25982;SDS011;13773;48.868;10.730;2023-04-25T05:17:50;9.33;;;4.30;;
25982;SDS011;13773;48.868;10.730;2023-04-25T05:20:15;4.67;;;3.97;;
25982;SDS011;13773;48.868;10.730;2023-04-25T05:22:43;7.50;;;4.97;;
25982;SDS011;13773;48.868;10.730;2023-04-25T05:25:09;5.53;;;3.97;;
25982;SDS011;13773;48.868;10.730;2023-04-25T05:27:35;6.03;;;4.20;;
25982;SDS011;13773;48.868;10.730;2023-04-25T05:30:01;5.07;;;4.10;;
25982;SDS011;13773;48.868;10.730;2023-04-25T05:32:26;4.67;;;4.20;;
25982;SDS011;13773;48.868;10.730;2023-04-25T05:34:52;5.57;;;3.60;;
25982;SDS011;13773;48.868;10.730;2023-04-25T05:37:18;5.40;;;3.80;;
25982;SDS011;13773;48.868;10.730;2023-04-25T05:39:43;4.63;;;4.13;;
25982;SDS011;13773;48.868;10.730;2023-04-25T05:42:09;6.00;;;4.10;;
25982;SDS011;13773;48.868;10.730;2023-04-25T05:44:35;6.40;;;4.00;;
25982;SDS011;13773;48.868;10.730;2023-04-25T05:47:01;5.27;;;4.23;;
25982;SDS011;13773;48.868;10.730;2023-04-25T05:49:26;8.90;;;4.53;;
25982;SDS011;13773;48.868;10.730;2023-04-25T05:51:52;4.97;;;3.90;;
25982;SDS011;13773;48.868;10.730;2023-04-25T05:54:17;5.20;;;4.00;;
25982;SDS011;13773;48.868;10.730;2023-04-25T05:56:43;5.53;;;4.00;;
25982;SDS011;13773;48.868;10.730;2023-04-25T05:59:09;7.80;;;3.90;;
25982;SDS011;13773;48.868;10.730;2023-04-25T06:01:35;7.37;;;4.17;;
25982;SDS011;13773;48.868;10.730;2023-04-25T06:04:00;5.23;;;4.07;;
25982;SDS011;13773;48.868;10.730;2023-04-25T06:06:26;6.83;;;4.30;;
25982;SDS011;13773;48.868;10.730;2023-04-25T06:08:52;5.70;;;4.40;;
25982;SDS011;13773;48.868;10.730;2023-04-25T06:11:18;4.80;;;3.90;;
25982;SDS011;13773;48.868;10.730;2023-04-25T06:13:44;6.63;;;4.90;;
25982;SDS011;13773;48.868;10.730;2023-04-25T06:16:10;5.33;;;4.20;;
25982;SDS011;13773;48.868;10.730;2023-04-25T06:18:36;5.03;;;4.50;;
25982;SDS011;13773;48.868;10.730;2023-04-25T06:21:02;4.53;;;4.13;;
25982;SDS011;13773;48.868;10.730;2023-04-25T06:23:27;5.07;;;4.33;;
25982;SDS011;13773;48.868;10.730;2023-04-25T06:25:53;4.80;;;4.30;;
25982;SDS011;13773;48.868;10.730;2023-04-25T06:28:21;4.30;;;3.90;;
25982;SDS011;13773;48.868;10.730;2023-04-25T06:30:48;4.43;;;4.03;;
25982;SDS011;13773;48.868;10.730;2023-04-25T06:33:13;7.13;;;4.50;;
25982;SDS011;13773;48.868;10.730;2023-04-25T06:35:39;5.40;;;4.43;;
25982;SDS011;13773;48.868;10.730;2023-04-25T06:38:05;5.07;;;4.10;;
25982;SDS011;13773;48.868;10.730;2023-04-25T06:40:30;5.40;;;3.90;;
25982;SDS011;13773;48.868;10.730;2023-04-25T06:42:56;4.30;;;3.90;;
25982;SDS011;13773;48.868;10.730;2023-04-25T06:45:23;4.70;;;3.63;;
25982;SDS011;13773;48.868;10.730;2023-04-25T06:47:48;4.17;;;3.77;;
25982;SDS011;13773;48.868;10.730;2023-04-25T06:50:14;5.27;;;3.27;;
25982;SDS011;13773;48.868;10.730;2023-04-25T06:52:40;5.43;;;3.93;;
25982;SDS011;13773;48.868;10.730;2023-04-25T06:55:06;6.33;;;3.87;;
25982;SDS011;13773;48.868;10.730;2023-04-25T06:57:33;7.33;;;4.20;;
25982;SDS011;13773;48.868;10.730;2023-04-25T06:59:59;4.97;;;3.67;;
25982;SDS011;13773;48.868;10.730;2023-04-25T07:02:26;4.73;;;3.33;;
25982;SDS011;13773;48.868;10.730;2023-04-25T07:04:52;5.77;;;3.87;;
25982;SDS011;13773;48.868;10.730;2023-04-25T07:07:18;5.57;;;3.73;;
25982;SDS011;13773;48.868;10.730;2023-04-25T07:09:44;6.43;;;4.00;;
25982;SDS011;13773;48.868;10.730;2023-04-25T07:12:10;5.10;;;3.60;;
25982;SDS011;13773;48.868;10.730;2023-04-25T07:14:36;6.93;;;3.93;;
25982;SDS011;13773;48.868;10.730;2023-04-25T07:17:01;5.40;;;3.80;;
25982;SDS011;13773;48.868;10.730;2023-04-25T07:19:27;5.00;;;3.73;;
25982;SDS011;13773;48.868;10.730;2023-04-25T07:21:54;6.37;;;3.77;;
25982;SDS011;13773;48.868;10.730;2023-04-25T07:24:20;5.17;;;3.50;;
25982;SDS011;13773;48.868;10.730;2023-04-25T07:26:46;5.53;;;3.67;;
25982;SDS011;13773;48.868;10.730;2023-04-25T07:29:11;6.17;;;3.97;;
25982;SDS011;13773;48.868;10.730;2023-04-25T07:31:37;5.93;;;4.27;;
25982;SDS011;13773;48.868;10.730;2023-04-25T07:34:03;6.00;;;3.30;;
25982;SDS011;13773;48.868;10.730;2023-04-25T07:36:29;6.17;;;3.77;;
25982;SDS011;13773;48.868;10.730;2023-04-25T07:38:55;5.20;;;3.50;;
25982;SDS011;13773;48.868;10.730;2023-04-25T07:41:21;4.00;;;3.53;;
25982;SDS011;13773;48.868;10.730;2023-04-25T07:43:47;5.27;;;3.60;;
25982;SDS011;13773;48.868;10.730;2023-04-25T07:46:13;4.70;;;3.67;;
25982;SDS011;13773;48.868;10.730;2023-04-25T07:48:38;4.60;;;3.90;;
25982;SDS011;13773;48.868;10.730;2023-04-25T07:51:04;5.37;;;3.70;;
25982;SDS011;13773;48.868;10.730;2023-04-25T07:53:30;4.30;;;3.63;;
25982;SDS011;13773;48.868;10.730;2023-04-25T07:55:57;3.90;;;3.50;;
25982;SDS011;13773;48.868;10.730;2023-04-25T07:58:23;4.47;;;4.07;;
25982;SDS011;13773;48.868;10.730;2023-04-25T08:00:48;6.60;;;3.43;;
25982;SDS011;13773;48.868;10.730;2023-04-25T08:03:15;4.20;;;3.80;;
25982;SDS011;13773;48.868;10.730;2023-04-25T08:05:40;5.27;;;4.20;;
25982;SDS011;13773;48.868;10.730;2023-04-25T08:08:06;5.13;;;4.63;;
25982;SDS011;13773;48.868;10.730;2023-04-25T08:10:32;7.60;;;5.40;;
25982;SDS011;13773;48.868;10.730;2023-04-25T08:12:58;6.30;;;5.70;;
25982;SDS011;13773;48.868;10.730;2023-04-25T08:15:25;6.03;;;5.43;;
25982;SDS011;13773;48.868;10.730;2023-04-25T08:17:51;5.80;;;5.27;;
25982;SDS011;13773;48.868;10.730;2023-04-25T08:20:17;6.70;;;6.10;;
25982;SDS011;13773;48.868;10.730;2023-04-25T08:22:42;6.50;;;5.90;;
25982;SDS011;13773;48.868;10.730;2023-04-25T08:25:08;6.10;;;5.60;;
25982;SDS011;13773;48.868;10.730;2023-04-25T08:27:34;5.60;;;4.97;;
25982;SDS011;13773;48.868;10.730;2023-04-25T08:30:00;6.27;;;4.50;;
25982;SDS011;13773;48.868;10.730;2023-04-25T08:32:28;5.20;;;4.70;;
25982;SDS011;13773;48.868;10.730;2023-04-25T08:34:54;6.07;;;5.47;;
25982;SDS011;13773;48.868;10.730;2023-04-25T08:37:20;6.00;;;5.10;;
25982;SDS011;13773;48.868;10.730;2023-04-25T08:39:46;4.60;;;4.00;;
25982;SDS011;13773;48.868;10.730;2023-04-25T08:42:13;5.43;;;4.10;;
25982;SDS011;13773;48.868;10.730;2023-04-25T08:44:40;4.27;;;3.70;;
25982;SDS011;13773;48.868;10.730;2023-04-25T08:47:06;4.17;;;3.80;;
25982;SDS011;13773;48.868;10.730;2023-04-25T08:49:32;4.40;;;3.47;;
25982;SDS011;13773;48.868;10.730;2023-04-25T08:51:59;3.37;;;3.10;;
25982;SDS011;13773;48.868;10.730;2023-04-25T08:54:30;3.23;;;2.93;;
25982;SDS011;13773;48.868;10.730;2023-04-25T08:56:57;3.40;;;3.10;;
25982;SDS011;13773;48.868;10.730;2023-04-25T08:59:29;3.13;;;2.73;;
25982;SDS011;13773;48.868;10.730;2023-04-25T09:01:56;2.60;;;2.40;;
25982;SDS011;13773;48.868;10.730;2023-04-25T09:04:22;2.60;;;2.40;;
25982;SDS011;13773;48.868;10.730;2023-04-25T09:06:48;3.40;;;3.10;;
25982;SDS011;13773;48.868;10.730;2023-04-25T09:09:13;3.20;;;2.90;;
25982;SDS011;13773;48.868;10.730;2023-04-25T09:11:39;4.90;;;4.13;;
25982;SDS011;13773;48.868;10.730;2023-04-25T09:14:20;8.43;;;3.70;;
25982;SDS011;13773;48.868;10.730;2023-04-25T09:17:08;3.43;;;3.00;;
25982;SDS011;13773;48.868;10.730;2023-04-25T09:19:34;5.27;;;4.40;;
25982;SDS011;13773;48.868;10.730;2023-04-25T09:22:02;3.73;;;3.43;;
25982;SDS011;13773;48.868;10.730;2023-04-25T09:27:09;3.90;;;3.50;;
25982;SDS011;13773;48.868;10.730;2023-04-25T09:29:42;4.93;;;4.13;;
25982;SDS011;13773;48.868;10.730;2023-04-25T09:32:18;5.30;;;4.30;;
25982;SDS011;13773;48.868;10.730;2023-04-25T09:34:46;6.90;;;5.03;;
25982;SDS011;13773;48.868;10.730;2023-04-25T09:37:19;5.60;;;5.00;;
25982;SDS011;13773;48.868;10.730;2023-04-25T09:39:49;8.37;;;6.03;;
25982;SDS011;13773;48.868;10.730;2023-04-25T09:42:16;4.90;;;4.50;;
25982;SDS011;13773;48.868;10.730;2023-04-25T09:44:43;5.03;;;4.40;;
25982;SDS011;13773;48.868;10.730;2023-04-25T09:47:10;6.87;;;5.40;;
25982;SDS011;13773;48.868;10.730;2023-04-25T09:49:39;4.90;;;4.50;;
25982;SDS011;13773;48.868;10.730;2023-04-25T09:52:06;6.03;;;5.00;;
25982;SDS011;13773;48.868;10.730;2023-04-25T09:54:32;6.67;;;4.80;;
25982;SDS011;13773;48.868;10.730;2023-04-25T09:56:58;7.23;;;4.57;;
25982;SDS011;13773;48.868;10.730;2023-04-25T09:59:36;4.63;;;4.20;;
25982;SDS011;13773;48.868;10.730;2023-04-25T10:02:05;4.90;;;4.17;;
25982;SDS011;13773;48.868;10.730;2023-04-25T10:04:33;3.97;;;3.50;;
25982;SDS011;13773;48.868;10.730;2023-04-25T10:07:00;5.10;;;4.40;;
25982;SDS011;13773;48.868;10.730;2023-04-25T10:09:30;5.57;;;4.83;;
25982;SDS011;13773;48.868;10.730;2023-04-25T10:11:58;5.10;;;4.30;;
25982;SDS011;13773;48.868;10.730;2023-04-25T10:14:25;6.20;;;4.33;;
25982;SDS011;13773;48.868;10.730;2023-04-25T10:16:52;6.83;;;5.57;;
25982;SDS011;13773;48.868;10.730;2023-04-25T10:19:19;5.93;;;4.63;;
25982;SDS011;13773;48.868;10.730;2023-04-25T10:21:50;4.80;;;4.37;;
25982;SDS011;13773;48.868;10.730;2023-04-25T10:24:19;5.10;;;4.17;;
25982;SDS011;13773;48.868;10.730;2023-04-25T10:26:46;5.20;;;4.60;;
25982;SDS011;13773;48.868;10.730;2023-04-25T10:29:13;3.90;;;3.50;;
25982;SDS011;13773;48.868;10.730;2023-04-25T10:31:48;4.47;;;4.07;;
25982;SDS011;13773;48.868;10.730;2023-04-25T10:34:13;5.77;;;4.60;;
25982;SDS011;13773;48.868;10.730;2023-04-25T10:36:41;6.87;;;4.93;;
25982;SDS011;13773;48.868;10.730;2023-04-25T10:39:07;5.63;;;4.90;;
25982;SDS011;13773;48.868;10.730;2023-04-25T10:41:46;5.97;;;4.80;;
25982;SDS011;13773;48.868;10.730;2023-04-25T10:44:15;6.07;;;5.00;;
25982;SDS011;13773;48.868;10.730;2023-04-25T10:46:40;5.13;;;4.63;;
25982;SDS011;13773;48.868;10.730;2023-04-25T10:49:06;5.70;;;4.50;;
25982;SDS011;13773;48.868;10.730;2023-04-25T10:51:34;4.57;;;4.17;;
25982;SDS011;13773;48.868;10.730;2023-04-25T10:54:05;5.30;;;4.80;;
25982;SDS011;13773;48.868;10.730;2023-04-25T10:56:32;6.20;;;5.20;;
25982;SDS011;13773;48.868;10.730;2023-04-25T10:59:32;5.10;;;4.60;;
25982;SDS011;13773;48.868;10.730;2023-04-25T11:01:52;6.37;;;5.10;;
25982;SDS011;13773;48.868;10.730;2023-04-25T11:09:47;4.73;;;4.33;;
25982;SDS011;13773;48.868;10.730;2023-04-25T11:12:13;4.77;;;4.37;;
25982;SDS011;13773;48.868;10.730;2023-04-25T11:14:40;5.20;;;4.70;;
25982;SDS011;13773;48.868;10.730;2023-04-25T11:17:05;5.00;;;4.60;;
25982;SDS011;13773;48.868;10.730;2023-04-25T11:19:32;5.70;;;5.00;;
25982;SDS011;13773;48.868;10.730;2023-04-25T11:21:58;4.83;;;4.30;;
25982;SDS011;13773;48.868;10.730;2023-04-25T11:24:34;6.33;;;4.57;;
25982;SDS011;13773;48.868;10.730;2023-04-25T11:27:01;5.83;;;4.57;;
25982;SDS011;13773;48.868;10.730;2023-04-25T11:29:31;5.80;;;5.20;;
25982;SDS011;13773;48.868;10.730;2023-04-25T11:31:58;5.27;;;4.57;;
25982;SDS011;13773;48.868;10.730;2023-04-25T11:34:26;6.33;;;5.07;;
25982;SDS011;13773;48.868;10.730;2023-04-25T11:36:52;5.90;;;5.30;;
25982;SDS011;13773;48.868;10.730;2023-04-25T11:39:19;5.60;;;5.10;;
25982;SDS011;13773;48.868;10.730;2023-04-25T11:41:45;5.47;;;4.67;;
25982;SDS011;13773;48.868;10.730;2023-04-25T11:44:12;5.00;;;4.53;;
25982;SDS011;13773;48.868;10.730;2023-04-25T11:46:40;6.10;;;5.53;;
25982;SDS011;13773;48.868;10.730;2023-04-25T11:49:07;6.60;;;5.43;;
25982;SDS011;13773;48.868;10.730;2023-04-25T11:51:43;7.10;;;6.50;;
25982;SDS011;13773;48.868;10.730;2023-04-25T11:54:10;7.33;;;6.63;;
25982;SDS011;13773;48.868;10.730;2023-04-25T11:56:37;6.93;;;6.23;;
25982;SDS011;13773;48.868;10.730;2023-04-25T11:59:05;5.40;;;4.90;;
25982;SDS011;13773;48.868;10.730;2023-04-25T12:01:32;5.10;;;4.60;;
25982;SDS011;13773;48.868;10.730;2023-04-25T12:04:12;7.67;;;5.37;;
25982;SDS011;13773;48.868;10.730;2023-04-25T12:06:42;4.23;;;3.80;;
25982;SDS011;13773;48.868;10.730;2023-04-25T12:09:13;5.07;;;4.57;;
25982;SDS011;13773;48.868;10.730;2023-04-25T12:11:44;2.40;;;2.20;;
25982;SDS011;13773;48.868;10.730;2023-04-25T12:14:11;3.97;;;2.47;;
25982;SDS011;13773;48.868;10.730;2023-04-25T12:16:45;2.23;;;2.03;;
25982;SDS011;13773;48.868;10.730;2023-04-25T12:19:15;2.77;;;2.00;;
25982;SDS011;13773;48.868;10.730;2023-04-25T12:21:42;5.53;;;3.63;;
25982;SDS011;13773;48.868;10.730;2023-04-25T12:29:20;3.87;;;3.00;;
25982;SDS011;13773;48.868;10.730;2023-04-25T12:31:48;3.87;;;3.10;;
25982;SDS011;13773;48.868;10.730;2023-04-25T12:34:15;4.97;;;3.70;;
25982;SDS011;13773;48.868;10.730;2023-04-25T12:36:41;3.37;;;3.03;;
25982;SDS011;13773;48.868;10.730;2023-04-25T12:39:06;3.57;;;3.27;;
25982;SDS011;13773;48.868;10.730;2023-04-25T12:41:33;4.50;;;4.10;;
25982;SDS011;13773;48.868;10.730;2023-04-25T12:43:58;5.30;;;4.33;;
25982;SDS011;13773;48.868;10.730;2023-04-25T12:46:24;4.53;;;3.73;;
25982;SDS011;13773;48.868;10.730;2023-04-25T12:48:50;4.63;;;3.93;;
25982;SDS011;13773;48.868;10.730;2023-04-25T12:51:16;4.67;;;3.73;;
25982;SDS011;13773;48.868;10.730;2023-04-25T12:53:41;4.10;;;3.47;;
25982;SDS011;13773;48.868;10.730;2023-04-25T12:56:09;3.73;;;3.40;;
25982;SDS011;13773;48.868;10.730;2023-04-25T12:58:36;4.33;;;3.30;;
25982;SDS011;13773;48.868;10.730;2023-04-25T13:01:01;3.90;;;3.40;;
25982;SDS011;13773;48.868;10.730;2023-04-25T13:03:27;4.77;;;4.07;;
25982;SDS011;13773;48.868;10.730;2023-04-25T13:05:53;4.13;;;3.63;;
25982;SDS011;13773;48.868;10.730;2023-04-25T13:08:19;6.90;;;3.53;;
25982;SDS011;13773;48.868;10.730;2023-04-25T13:10:45;4.33;;;3.93;;
25982;SDS011;13773;48.868;10.730;2023-04-25T13:13:10;3.63;;;3.33;;
25982;SDS011;13773;48.868;10.730;2023-04-25T13:15:36;4.30;;;3.20;;
25982;SDS011;13773;48.868;10.730;2023-04-25T13:18:05;6.13;;;3.60;;
25982;SDS011;13773;48.868;10.730;2023-04-25T13:20:31;5.30;;;3.43;;
25982;SDS011;13773;48.868;10.730;2023-04-25T13:22:57;5.03;;;3.80;;
25982;SDS011;13773;48.868;10.730;2023-04-25T13:25:23;4.47;;;3.37;;
25982;SDS011;13773;48.868;10.730;2023-04-25T13:27:49;4.67;;;3.27;;
25982;SDS011;13773;48.868;10.730;2023-04-25T13:30:14;4.00;;;3.20;;
25982;SDS011;13773;48.868;10.730;2023-04-25T13:32:40;3.97;;;2.97;;
25982;SDS011;13773;48.868;10.730;2023-04-25T13:35:06;4.57;;;3.30;;
25982;SDS011;13773;48.868;10.730;2023-04-25T13:37:34;3.70;;;3.40;;
25982;SDS011;13773;48.868;10.730;2023-04-25T13:40:00;3.70;;;2.90;;
25982;SDS011;13773;48.868;10.730;2023-04-25T13:42:29;5.93;;;3.60;;
25982;SDS011;13773;48.868;10.730;2023-04-25T13:44:55;6.13;;;4.13;;
25982;SDS011;13773;48.868;10.730;2023-04-25T13:47:21;7.03;;;4.03;;
25982;SDS011;13773;48.868;10.730;2023-04-25T13:49:48;3.57;;;3.27;;
25982;SDS011;13773;48.868;10.730;2023-04-25T13:52:14;5.97;;;3.60;;
25982;SDS011;13773;48.868;10.730;2023-04-25T13:54:40;4.53;;;3.20;;
25982;SDS011;13773;48.868;10.730;2023-04-25T13:57:05;3.87;;;2.93;;
25982;SDS011;13773;48.868;10.730;2023-04-25T13:59:31;2.83;;;2.50;;
25982;SDS011;13773;48.868;10.730;2023-04-25T14:01:57;3.93;;;3.00;;
25982;SDS011;13773;48.868;10.730;2023-04-25T14:04:23;3.67;;;3.10;;
25982;SDS011;13773;48.868;10.730;2023-04-25T14:06:50;5.40;;;3.40;;
25982;SDS011;13773;48.868;10.730;2023-04-25T14:09:16;4.00;;;2.80;;
25982;SDS011;13773;48.868;10.730;2023-04-25T14:11:42;4.57;;;2.80;;
25982;SDS011;13773;48.868;10.730;2023-04-25T14:14:08;2.90;;;2.70;;
25982;SDS011;13773;48.868;10.730;2023-04-25T14:16:34;4.57;;;3.23;;
25982;SDS011;13773;48.868;10.730;2023-04-25T14:19:00;5.60;;;3.40;;
25982;SDS011;13773;48.868;10.730;2023-04-25T14:21:26;4.53;;;3.10;;
25982;SDS011;13773;48.868;10.730;2023-04-25T14:23:53;4.70;;;3.17;;
25982;SDS011;13773;48.868;10.730;2023-04-25T14:26:19;4.77;;;3.27;;
25982;SDS011;13773;48.868;10.730;2023-04-25T14:28:44;4.40;;;2.90;;
25982;SDS011;13773;48.868;10.730;2023-04-25T14:31:10;5.97;;;2.93;;
25982;SDS011;13773;48.868;10.730;2023-04-25T14:33:36;4.20;;;2.83;;
25982;SDS011;13773;48.868;10.730;2023-04-25T14:36:04;3.00;;;2.40;;
25982;SDS011;13773;48.868;10.730;2023-04-25T14:38:30;4.23;;;3.03;;
25982;SDS011;13773;48.868;10.730;2023-04-25T14:40:56;4.00;;;3.13;;
25982;SDS011;13773;48.868;10.730;2023-04-25T14:43:22;3.63;;;3.20;;